createdAt,value
2017-09-13T00:00:36.965Z,99.7
2017-09-13T00:01:38.377Z,100.0
2017-09-13T00:02:39.881Z,100.0
2017-09-13T00:03:41.284Z,99.8
2017-09-13T00:04:42.683Z,98.7
2017-09-13T00:05:44.200Z,98.5
2017-09-13T00:06:45.600Z,99.3
2017-09-13T00:07:47.443Z,100.0
2017-09-13T00:08:49.145Z,98.1
2017-09-13T00:09:50.545Z,98.8
2017-09-13T00:10:51.940Z,98.4
2017-09-13T00:11:53.455Z,98.4
2017-09-13T00:12:54.857Z,98.2
2017-09-13T00:13:56.256Z,98.8
2017-09-13T00:14:57.778Z,98.6
2017-09-13T00:15:59.176Z,98.2
2017-09-13T00:17:00.574Z,98.5
2017-09-13T00:18:02.115Z,98.6
2017-09-13T00:19:03.553Z,97.7
2017-09-13T00:20:05.184Z,97.1
2017-09-13T00:21:06.585Z,97.6
2017-09-13T00:22:08.001Z,97.4
2017-09-13T00:23:09.518Z,97.4
2017-09-13T00:24:10.915Z,98.4
2017-09-13T00:25:12.315Z,98.6
2017-09-13T00:26:13.826Z,98.7
2017-09-13T00:27:15.224Z,98.9
2017-09-13T00:28:16.619Z,98.8
2017-09-13T00:29:18.154Z,99.1
2017-09-13T00:30:19.555Z,99.3
2017-09-13T00:31:20.956Z,99.6
2017-09-13T00:32:22.467Z,98.1
2017-09-13T00:33:23.866Z,98.1
2017-09-13T00:34:25.265Z,98.3
2017-09-13T00:35:26.788Z,97.9
2017-09-13T00:36:28.188Z,97.6
2017-09-13T00:37:29.587Z,98.5
2017-09-13T00:38:31.111Z,97.2
2017-09-13T00:39:32.510Z,97.9
2017-09-13T00:40:33.907Z,97.4
2017-09-13T00:41:35.431Z,97.7
2017-09-13T00:42:36.832Z,97.7
2017-09-13T00:43:38.517Z,98.2
2017-09-13T00:44:39.920Z,97.7
2017-09-13T00:45:41.602Z,98.0
2017-09-13T00:46:43.002Z,97.2
2017-09-13T00:47:44.402Z,97.7
2017-09-13T00:48:45.923Z,98.2
2017-09-13T00:49:47.327Z,98.5
2017-09-13T00:50:48.728Z,98.2
2017-09-13T00:51:50.254Z,97.6
2017-09-13T00:52:51.655Z,97.4
2017-09-13T00:53:53.331Z,97.2
2017-09-13T00:54:54.729Z,97.6
2017-09-13T00:55:56.432Z,97.6
2017-09-13T00:56:57.829Z,96.1
2017-09-13T00:57:59.501Z,97.2
2017-09-13T00:59:00.903Z,97.3
2017-09-13T01:00:02.589Z,96.8
2017-09-13T01:01:03.987Z,97.0
2017-09-13T01:02:05.384Z,96.3
2017-09-13T01:03:06.909Z,96.3
2017-09-13T01:04:08.312Z,96.6
2017-09-13T01:05:09.710Z,96.8
2017-09-13T01:06:11.229Z,97.1
2017-09-13T01:07:12.641Z,96.8
2017-09-13T01:08:14.110Z,96.7
2017-09-13T01:09:15.508Z,96.1
2017-09-13T01:10:16.992Z,97.0
2017-09-13T01:11:18.426Z,97.1
2017-09-13T01:12:19.871Z,97.9
2017-09-13T01:13:21.272Z,96.5
2017-09-13T01:14:22.754Z,96.6
2017-09-13T01:15:24.152Z,96.8
2017-09-13T01:16:25.632Z,96.8
2017-09-13T01:17:27.034Z,96.2
2017-09-13T01:18:28.434Z,96.2
2017-09-13T01:19:29.859Z,95.8
2017-09-13T01:20:31.260Z,95.9
2017-09-13T01:21:32.657Z,96.6
2017-09-13T01:22:34.070Z,96.7
2017-09-13T01:23:35.468Z,95.7
2017-09-13T01:24:36.966Z,95.6
2017-09-13T01:25:38.368Z,95.6
2017-09-13T01:26:39.831Z,96.1
2017-09-13T01:27:41.243Z,96.8
2017-09-13T01:28:42.736Z,97.1
2017-09-13T01:29:44.134Z,97.3
2017-09-13T01:30:45.594Z,97.4
2017-09-13T01:31:46.988Z,96.7
2017-09-13T01:32:48.499Z,96.8
2017-09-13T01:33:49.900Z,97.2
2017-09-13T01:34:51.354Z,97.1
2017-09-13T01:35:52.754Z,96.8
2017-09-13T01:36:54.251Z,96.8
2017-09-13T01:37:55.682Z,96.1
2017-09-13T01:38:57.081Z,96.6
2017-09-13T01:39:58.489Z,97.6
2017-09-13T01:41:00.319Z,97.8
2017-09-13T01:42:01.719Z,97.4
2017-09-13T01:43:03.119Z,97.5
2017-09-13T01:44:04.623Z,97.7
2017-09-13T01:45:06.023Z,97.8
2017-09-13T01:46:07.453Z,97.5
2017-09-13T01:47:08.843Z,97.7
2017-09-13T01:48:10.260Z,97.4
2017-09-13T01:49:11.672Z,96.9
2017-09-13T01:50:13.163Z,97.3
2017-09-13T01:51:14.563Z,98.0
2017-09-13T01:52:15.960Z,96.8
2017-09-13T01:53:17.382Z,97.8
2017-09-13T01:54:18.781Z,97.7
2017-09-13T01:55:20.180Z,97.9
2017-09-13T01:56:21.601Z,97.6
2017-09-13T01:57:23.003Z,97.9
2017-09-13T01:58:24.403Z,97.2
2017-09-13T01:59:25.811Z,97.3
2017-09-13T02:00:27.231Z,97.6
2017-09-13T02:01:28.732Z,97.9
2017-09-13T02:02:30.141Z,99.2
2017-09-13T02:03:31.540Z,99.9
2017-09-13T02:04:33.021Z,100.0
2017-09-13T02:05:34.419Z,100.0
2017-09-13T02:06:35.818Z,100.0
2017-09-13T02:07:37.239Z,100.0
2017-09-13T02:08:38.646Z,100.0
2017-09-13T02:09:40.044Z,100.0
2017-09-13T02:10:42.593Z,100.0
2017-09-13T02:11:43.997Z,100.0
2017-09-13T02:12:45.418Z,100.0
2017-09-13T02:13:46.906Z,100.0
2017-09-13T02:14:48.310Z,100.0
2017-09-13T02:15:49.786Z,100.0
2017-09-13T02:16:51.186Z,100.0
2017-09-13T02:17:52.588Z,100.0
2017-09-13T02:18:54.108Z,100.0
2017-09-13T02:19:55.503Z,100.0
2017-09-13T02:20:56.911Z,100.0
2017-09-13T02:21:58.327Z,100.0
2017-09-13T02:22:59.726Z,100.0
2017-09-13T02:24:01.124Z,100.0
2017-09-13T02:25:02.546Z,100.0
2017-09-13T02:26:03.945Z,100.0
2017-09-13T02:27:05.427Z,100.0
2017-09-13T02:28:06.823Z,100.0
2017-09-13T02:29:08.306Z,100.0
2017-09-13T02:30:09.709Z,100.0
2017-09-13T02:31:11.189Z,100.0
2017-09-13T02:32:12.587Z,100.0
2017-09-13T02:33:14.067Z,100.0
2017-09-13T02:34:15.483Z,100.0
2017-09-13T02:35:16.948Z,100.0
2017-09-13T02:36:18.348Z,100.0
2017-09-13T02:37:19.757Z,100.0
2017-09-13T02:38:21.167Z,100.0
2017-09-13T02:39:22.570Z,100.0
2017-09-13T02:40:23.969Z,100.0
2017-09-13T02:41:25.386Z,100.0
2017-09-13T02:42:26.785Z,100.0
2017-09-13T02:43:28.190Z,100.0
2017-09-13T02:44:29.604Z,100.0
2017-09-13T02:45:31.006Z,100.0
2017-09-13T02:46:32.485Z,100.0
2017-09-13T02:47:33.885Z,100.0
2017-09-13T02:48:35.365Z,100.0
2017-09-13T02:49:36.765Z,100.0
2017-09-13T02:50:38.247Z,100.0
2017-09-13T02:51:39.649Z,100.0
2017-09-13T02:52:41.157Z,100.0
2017-09-13T02:53:42.548Z,100.0
2017-09-13T02:54:44.008Z,100.0
2017-09-13T02:55:45.411Z,100.0
2017-09-13T02:56:46.890Z,100.0
2017-09-13T02:57:48.293Z,100.0
2017-09-13T02:58:49.690Z,100.0
2017-09-13T02:59:51.100Z,100.0
2017-09-13T03:00:52.509Z,100.0
2017-09-13T03:01:53.991Z,100.0
2017-09-13T03:02:55.386Z,100.0
2017-09-13T03:03:56.788Z,100.0
2017-09-13T03:04:58.242Z,100.0
2017-09-13T03:05:59.647Z,100.0
2017-09-13T03:07:01.049Z,100.0
2017-09-13T03:08:02.528Z,100.0
2017-09-13T03:09:03.928Z,100.0
2017-09-13T03:10:05.325Z,100.0
2017-09-13T03:11:06.751Z,100.0
2017-09-13T03:12:08.153Z,100.0
2017-09-13T03:13:09.551Z,100.0
2017-09-13T03:14:10.976Z,100.0
2017-09-13T03:15:12.385Z,100.0
2017-09-13T03:16:13.796Z,100.0
2017-09-13T03:17:15.286Z,100.0
2017-09-13T03:18:16.696Z,100.0
2017-09-13T03:19:18.099Z,100.0
2017-09-13T03:20:19.607Z,100.0
2017-09-13T03:21:21.030Z,100.0
2017-09-13T03:22:22.493Z,100.0
2017-09-13T03:23:23.882Z,100.0
2017-09-13T03:24:25.303Z,100.0
2017-09-13T03:25:26.809Z,100.0
2017-09-13T03:26:28.212Z,100.0
2017-09-13T03:27:29.614Z,100.0
2017-09-13T03:28:31.027Z,100.0
2017-09-13T03:29:32.431Z,100.0
2017-09-13T03:30:33.835Z,100.0
2017-09-13T03:31:35.369Z,100.0
2017-09-13T03:32:36.793Z,100.0
2017-09-13T03:33:38.165Z,100.0
2017-09-13T03:34:39.670Z,100.0
2017-09-13T03:35:41.099Z,100.0
2017-09-13T03:36:42.756Z,100.0
2017-09-13T03:37:44.169Z,100.0
2017-09-13T03:38:45.636Z,100.0
2017-09-13T03:39:47.035Z,100.0
2017-09-13T03:40:48.518Z,100.0
2017-09-13T03:41:49.925Z,100.0
2017-09-13T03:42:51.396Z,100.0
2017-09-13T03:43:52.797Z,100.0
2017-09-13T03:44:54.203Z,100.0
2017-09-13T03:45:55.716Z,100.0
2017-09-13T03:46:57.117Z,100.0
2017-09-13T03:47:58.516Z,100.0
2017-09-13T03:49:00.039Z,100.0
2017-09-13T03:50:01.445Z,100.0
2017-09-13T03:51:02.845Z,100.0
2017-09-13T03:52:04.361Z,100.0
2017-09-13T03:53:05.759Z,100.0
2017-09-13T03:54:07.156Z,100.0
2017-09-13T03:55:08.578Z,100.0
2017-09-13T03:56:09.978Z,100.0
2017-09-13T03:57:11.377Z,100.0
2017-09-13T03:58:12.800Z,100.0
2017-09-13T03:59:14.197Z,100.0
2017-09-13T04:00:15.592Z,100.0
2017-09-13T04:01:17.016Z,100.0
2017-09-13T04:02:18.431Z,100.0
2017-09-13T04:03:19.831Z,100.0
2017-09-13T04:04:21.439Z,100.0
2017-09-13T04:05:22.842Z,100.0
2017-09-13T04:06:24.254Z,100.0
2017-09-13T04:07:25.764Z,100.0
2017-09-13T04:08:27.164Z,100.0
2017-09-13T04:09:28.585Z,100.0
2017-09-13T04:10:30.082Z,100.0
2017-09-13T04:11:31.482Z,100.0
2017-09-13T04:12:32.884Z,100.0
2017-09-13T04:13:34.371Z,100.0
2017-09-13T04:14:35.766Z,100.0
2017-09-13T04:15:37.287Z,100.0
2017-09-13T04:16:38.717Z,100.0
2017-09-13T04:17:40.331Z,100.0
2017-09-13T04:18:41.762Z,100.0
2017-09-13T04:19:43.151Z,100.0
2017-09-13T04:20:44.689Z,100.0
2017-09-13T04:21:46.086Z,100.0
2017-09-13T04:22:47.491Z,100.0
2017-09-13T04:23:49.010Z,100.0
2017-09-13T04:24:50.414Z,100.0
2017-09-13T04:25:51.892Z,100.0
2017-09-13T04:26:53.289Z,100.0
2017-09-13T04:27:54.772Z,100.0
2017-09-13T04:28:56.177Z,100.0
2017-09-13T04:29:57.588Z,100.0
2017-09-13T04:31:00.117Z,100.0
2017-09-13T04:32:01.517Z,100.0
2017-09-13T04:33:02.924Z,100.0
2017-09-13T04:34:04.438Z,100.0
2017-09-13T04:35:05.840Z,100.0
2017-09-13T04:36:07.242Z,100.0
2017-09-13T04:37:08.723Z,100.0
2017-09-13T04:38:10.124Z,100.0
2017-09-13T04:39:11.522Z,100.0
2017-09-13T04:40:13.046Z,100.0
2017-09-13T04:41:14.474Z,100.0
2017-09-13T04:42:15.933Z,100.0
2017-09-13T04:43:17.330Z,100.0
2017-09-13T04:44:18.823Z,100.0
2017-09-13T04:45:20.221Z,100.0
2017-09-13T04:46:21.624Z,100.0
2017-09-13T04:47:23.021Z,100.0
2017-09-13T04:48:24.576Z,100.0
2017-09-13T04:49:25.977Z,100.0
2017-09-13T04:50:27.464Z,100.0
2017-09-13T04:51:29.380Z,100.0
2017-09-13T04:52:30.962Z,100.0
2017-09-13T04:53:32.361Z,100.0
2017-09-13T04:54:33.853Z,100.0
2017-09-13T04:55:35.273Z,100.0
2017-09-13T04:56:36.675Z,100.0
2017-09-13T04:57:38.150Z,100.0
2017-09-13T04:58:39.549Z,100.0
2017-09-13T04:59:40.947Z,100.0
2017-09-13T05:00:42.470Z,100.0
2017-09-13T05:01:43.871Z,100.0
2017-09-13T05:02:45.269Z,100.0
2017-09-13T05:03:46.792Z,100.0
2017-09-13T05:04:48.188Z,100.0
2017-09-13T05:05:49.586Z,100.0
2017-09-13T05:06:51.119Z,100.0
2017-09-13T05:07:52.509Z,100.0
2017-09-13T05:08:53.999Z,100.0
2017-09-13T05:09:55.400Z,100.0
2017-09-13T05:10:56.883Z,100.0
2017-09-13T05:11:58.293Z,100.0
2017-09-13T05:12:59.759Z,100.0
2017-09-13T05:14:01.175Z,100.0
2017-09-13T05:15:02.640Z,100.0
2017-09-13T05:16:04.040Z,100.0
2017-09-13T05:17:05.530Z,100.0
2017-09-13T05:18:06.929Z,100.0
2017-09-13T05:19:08.403Z,100.0
2017-09-13T05:20:09.805Z,100.0
2017-09-13T05:21:11.203Z,100.0
2017-09-13T05:22:12.780Z,100.0
2017-09-13T05:23:14.179Z,100.0
2017-09-13T05:24:15.580Z,100.0
2017-09-13T05:25:17.045Z,100.0
2017-09-13T05:26:18.445Z,100.0
2017-09-13T05:27:19.846Z,100.0
2017-09-13T05:28:21.375Z,100.0
2017-09-13T05:29:22.774Z,100.0
2017-09-13T05:30:24.183Z,100.0
2017-09-13T05:31:25.690Z,100.0
2017-09-13T05:32:27.090Z,100.0
2017-09-13T05:33:28.571Z,100.0
2017-09-13T05:34:29.970Z,100.0
2017-09-13T05:35:31.460Z,100.0
2017-09-13T05:36:32.863Z,100.0
2017-09-13T05:37:34.349Z,100.0
2017-09-13T05:38:35.751Z,100.0
2017-09-13T05:39:37.215Z,100.0
2017-09-13T05:40:38.613Z,100.0
2017-09-13T05:41:40.012Z,100.0
2017-09-13T05:42:41.549Z,100.0
2017-09-13T05:43:42.948Z,100.0
2017-09-13T05:44:44.366Z,100.0
2017-09-13T05:45:45.857Z,100.0
2017-09-13T05:46:47.261Z,100.0
2017-09-13T05:47:48.740Z,100.0
2017-09-13T05:48:50.138Z,100.0
2017-09-13T05:49:51.620Z,100.0
2017-09-13T05:50:53.040Z,100.0
2017-09-13T05:51:54.443Z,100.0
2017-09-13T05:52:55.958Z,100.0
2017-09-13T05:53:57.368Z,100.0
2017-09-13T05:54:58.771Z,100.0
2017-09-13T05:56:00.266Z,100.0
2017-09-13T05:57:01.672Z,100.0
2017-09-13T05:58:03.145Z,100.0
2017-09-13T05:59:04.548Z,100.0
2017-09-13T06:00:06.026Z,100.0
2017-09-13T06:01:07.433Z,100.0
2017-09-13T06:02:08.905Z,100.0
2017-09-13T06:03:10.309Z,100.0
2017-09-13T06:04:11.807Z,100.0
2017-09-13T06:05:13.224Z,100.0
2017-09-13T06:06:14.690Z,100.0
2017-09-13T06:07:16.111Z,100.0
2017-09-13T06:08:17.569Z,100.0
2017-09-13T06:09:18.970Z,100.0
2017-09-13T06:10:20.372Z,100.0
2017-09-13T06:11:21.885Z,100.0
2017-09-13T06:12:23.293Z,100.0
2017-09-13T06:13:24.732Z,100.0
2017-09-13T06:14:26.211Z,100.0
2017-09-13T06:15:27.614Z,100.0
2017-09-13T06:16:32.641Z,100.0
2017-09-13T06:17:34.113Z,100.0
2017-09-13T06:18:35.518Z,100.0
2017-09-13T06:19:36.995Z,100.0
2017-09-13T06:20:38.399Z,100.0
2017-09-13T06:21:39.877Z,100.0
2017-09-13T06:22:41.281Z,100.0
2017-09-13T06:23:42.763Z,100.0
2017-09-13T06:24:44.162Z,100.0
2017-09-13T06:25:45.564Z,100.0
2017-09-13T06:26:47.080Z,100.0
2017-09-13T06:27:48.481Z,100.0
2017-09-13T06:28:49.884Z,100.0
2017-09-13T06:29:51.399Z,100.0
2017-09-13T06:30:52.800Z,100.0
2017-09-13T06:31:54.203Z,100.0
2017-09-13T06:32:55.626Z,100.0
2017-09-13T06:33:57.019Z,100.0
2017-09-13T06:34:58.422Z,100.0
2017-09-13T06:35:59.938Z,100.0
2017-09-13T06:37:01.343Z,100.0
2017-09-13T06:38:02.819Z,100.0
2017-09-13T06:39:04.223Z,100.0
2017-09-13T06:40:05.700Z,100.0
2017-09-13T06:41:07.106Z,100.0
2017-09-13T06:42:08.579Z,100.0
2017-09-13T06:43:09.984Z,100.0
2017-09-13T06:44:11.462Z,100.0
2017-09-13T06:45:12.883Z,100.0
2017-09-13T06:46:14.343Z,100.0
2017-09-13T06:47:15.745Z,100.0
2017-09-13T06:48:17.236Z,100.0
2017-09-13T06:49:18.639Z,100.0
2017-09-13T06:50:21.126Z,100.0
2017-09-13T06:51:22.527Z,100.0
2017-09-13T06:52:23.945Z,100.0
2017-09-13T06:53:25.448Z,100.0
2017-09-13T06:54:26.850Z,100.0
2017-09-13T06:55:28.257Z,100.0
2017-09-13T06:56:29.771Z,100.0
2017-09-13T06:57:31.175Z,100.0
2017-09-13T06:58:32.650Z,100.0
2017-09-13T06:59:34.050Z,100.0
2017-09-13T07:00:35.531Z,100.0
2017-09-13T07:01:36.936Z,100.0
2017-09-13T07:02:38.339Z,100.0
2017-09-13T07:03:39.852Z,100.0
2017-09-13T07:04:41.256Z,100.0
2017-09-13T07:05:42.662Z,100.0
2017-09-13T07:06:44.178Z,100.0
2017-09-13T07:07:45.577Z,100.0
2017-09-13T07:08:47.057Z,100.0
2017-09-13T07:09:48.458Z,100.0
2017-09-13T07:10:49.935Z,100.0
2017-09-13T07:11:51.339Z,100.0
2017-09-13T07:12:52.743Z,100.0
2017-09-13T07:13:54.256Z,100.0
2017-09-13T07:14:55.657Z,100.0
2017-09-13T07:15:57.059Z,100.0
2017-09-13T07:16:58.577Z,100.0
2017-09-13T07:17:59.983Z,100.0
2017-09-13T07:19:01.458Z,100.0
2017-09-13T07:20:02.865Z,100.0
2017-09-13T07:21:04.341Z,100.0
2017-09-13T07:22:05.752Z,100.0
2017-09-13T07:23:07.158Z,100.0
2017-09-13T07:24:08.572Z,100.0
2017-09-13T07:25:09.999Z,100.0
2017-09-13T07:26:11.407Z,100.0
2017-09-13T07:27:12.813Z,100.0
2017-09-13T07:28:14.321Z,100.0
2017-09-13T07:29:15.733Z,100.0
2017-09-13T07:30:17.200Z,100.0
2017-09-13T07:31:18.608Z,100.0
2017-09-13T07:32:20.125Z,100.0
2017-09-13T07:33:21.491Z,100.0
2017-09-13T07:34:22.963Z,100.0
2017-09-13T07:35:24.369Z,100.0
2017-09-13T07:36:25.842Z,100.0
2017-09-13T07:37:27.248Z,100.0
2017-09-13T07:38:28.656Z,100.0
2017-09-13T07:39:30.163Z,100.0
2017-09-13T07:40:31.567Z,100.0
2017-09-13T07:41:32.970Z,100.0
2017-09-13T07:42:34.495Z,100.0
2017-09-13T07:43:35.902Z,100.0
2017-09-13T07:44:37.374Z,100.0
2017-09-13T07:45:38.772Z,100.0
2017-09-13T07:46:40.181Z,100.0
2017-09-13T07:47:41.701Z,100.0
2017-09-13T07:48:43.096Z,100.0
2017-09-13T07:49:44.501Z,100.0
2017-09-13T07:50:46.010Z,100.0
2017-09-13T07:51:47.429Z,100.0
2017-09-13T07:52:48.833Z,100.0
2017-09-13T07:53:50.331Z,100.0
2017-09-13T07:54:51.735Z,100.0
2017-09-13T07:55:53.223Z,100.0
2017-09-13T07:56:54.628Z,100.0
2017-09-13T07:57:56.093Z,100.0
2017-09-13T07:58:57.498Z,100.0
2017-09-13T07:59:59.999Z,100.0
2017-09-13T08:01:01.406Z,100.0
2017-09-13T08:02:02.880Z,100.0
2017-09-13T08:03:04.291Z,100.0
2017-09-13T08:04:05.761Z,100.0
2017-09-13T08:05:07.165Z,100.0
2017-09-13T08:06:08.580Z,100.0
2017-09-13T08:07:09.995Z,100.0
2017-09-13T08:08:11.409Z,100.0
2017-09-13T08:09:12.859Z,100.0
2017-09-13T08:10:14.265Z,100.0
2017-09-13T08:11:15.674Z,100.0
2017-09-13T08:12:17.180Z,100.0
2017-09-13T08:13:18.580Z,100.0
2017-09-13T08:14:20.061Z,100.0
2017-09-13T08:15:21.466Z,100.0
2017-09-13T08:16:22.941Z,100.0
2017-09-13T08:17:24.346Z,100.0
2017-09-13T08:18:25.754Z,100.0
2017-09-13T08:19:27.260Z,100.0
2017-09-13T08:20:28.662Z,100.0
2017-09-13T08:21:30.067Z,100.0
2017-09-13T08:22:31.585Z,100.0
2017-09-13T08:23:32.987Z,100.0
2017-09-13T08:24:34.392Z,99.6
2017-09-13T08:25:35.902Z,100.0
2017-09-13T08:26:37.326Z,100.0
2017-09-13T08:27:38.719Z,100.0
2017-09-13T08:28:40.222Z,96.8
2017-09-13T08:29:41.626Z,97.9
2017-09-13T08:30:43.032Z,97.7
2017-09-13T08:31:44.544Z,98.3
2017-09-13T08:32:45.945Z,97.8
2017-09-13T08:33:47.355Z,96.4
2017-09-13T08:34:48.866Z,97.1
2017-09-13T08:35:50.267Z,97.7
2017-09-13T08:36:51.746Z,97.2
2017-09-13T08:37:53.153Z,97.7
2017-09-13T08:38:54.561Z,96.0
2017-09-13T08:39:56.068Z,95.6
2017-09-13T08:40:57.471Z,95.8
2017-09-13T08:41:58.874Z,95.3
2017-09-13T08:43:00.394Z,94.2
2017-09-13T08:44:01.802Z,91.1
2017-09-13T08:45:03.205Z,92.2
2017-09-13T08:46:04.712Z,92.2
2017-09-13T08:47:06.111Z,92.0
2017-09-13T08:48:07.514Z,91.8
2017-09-13T08:49:09.032Z,92.1
2017-09-13T08:50:10.432Z,92.0
2017-09-13T08:51:11.912Z,92.8
2017-09-13T08:52:13.328Z,93.9
2017-09-13T08:53:14.737Z,93.1
2017-09-13T08:54:16.238Z,91.2
2017-09-13T08:55:17.632Z,91.0
2017-09-13T08:56:19.036Z,91.3
2017-09-13T08:57:20.551Z,90.3
2017-09-13T08:58:21.954Z,91.5
2017-09-13T08:59:23.363Z,92.9
2017-09-13T09:00:24.874Z,92.8
2017-09-13T09:01:26.275Z,91.3
2017-09-13T09:02:27.679Z,90.2
2017-09-13T09:03:29.192Z,91.7
2017-09-13T09:04:30.596Z,92.3
2017-09-13T09:05:32.073Z,93.5
2017-09-13T09:06:33.494Z,90.7
2017-09-13T09:07:34.956Z,91.5
2017-09-13T09:08:36.361Z,90.8
2017-09-13T09:09:37.865Z,92.6
2017-09-13T09:10:39.249Z,91.6
2017-09-13T09:11:40.716Z,89.8
2017-09-13T09:12:42.118Z,88.4
2017-09-13T09:13:43.603Z,90.9
2017-09-13T09:14:45.009Z,91.2
2017-09-13T09:15:46.481Z,90.5
2017-09-13T09:16:47.882Z,90.0
2017-09-13T09:17:49.357Z,91.6
2017-09-13T09:18:50.763Z,90.2
2017-09-13T09:19:52.168Z,89.0
2017-09-13T09:20:53.678Z,89.7
2017-09-13T09:21:55.090Z,88.3
2017-09-13T09:22:56.498Z,89.1
2017-09-13T09:23:58.002Z,88.5
2017-09-13T09:24:59.405Z,86.4
2017-09-13T09:26:00.808Z,85.9
2017-09-13T09:27:02.337Z,85.3
2017-09-13T09:28:03.842Z,84.0
2017-09-13T09:29:05.206Z,83.5
2017-09-13T09:30:07.395Z,86.8
2017-09-13T09:31:08.792Z,85.7
2017-09-13T09:32:10.196Z,83.9
2017-09-13T09:33:11.692Z,86.2
2017-09-13T09:34:13.090Z,83.5
2017-09-13T09:35:14.560Z,84.1
2017-09-13T09:36:15.968Z,85.1
2017-09-13T09:37:17.447Z,85.1
2017-09-13T09:38:18.863Z,85.7
2017-09-13T09:39:20.325Z,86.2
2017-09-13T09:40:21.729Z,84.8
2017-09-13T09:41:23.475Z,84.9
2017-09-13T09:42:24.887Z,86.0
2017-09-13T09:43:26.391Z,85.5
2017-09-13T09:44:27.802Z,84.9
2017-09-13T09:45:29.274Z,84.8
2017-09-13T09:46:30.691Z,84.6
2017-09-13T09:47:32.157Z,81.8
2017-09-13T09:48:33.563Z,83.2
2017-09-13T09:49:34.969Z,80.8
2017-09-13T09:50:36.525Z,81.9
2017-09-13T09:51:37.937Z,79.9
2017-09-13T09:52:39.334Z,79.0
2017-09-13T09:53:40.796Z,78.3
2017-09-13T09:54:42.237Z,77.9
2017-09-13T09:55:43.641Z,78.3
2017-09-13T09:56:45.116Z,81.3
2017-09-13T09:57:46.533Z,82.1
2017-09-13T09:58:47.937Z,81.1
2017-09-13T09:59:49.440Z,81.2
2017-09-13T10:00:50.845Z,80.8
2017-09-13T10:01:52.319Z,79.6
2017-09-13T10:02:53.732Z,80.4
2017-09-13T10:03:55.200Z,79.3
2017-09-13T10:04:56.608Z,78.3
2017-09-13T10:05:58.082Z,78.4
2017-09-13T10:06:59.488Z,76.0
2017-09-13T10:08:00.965Z,77.1
2017-09-13T10:09:02.372Z,78.3
2017-09-13T10:10:03.852Z,78.7
2017-09-13T10:11:05.258Z,76.8
2017-09-13T10:12:06.727Z,77.7
2017-09-13T10:13:08.133Z,75.8
2017-09-13T10:14:09.537Z,76.7
2017-09-13T10:15:11.054Z,76.5
2017-09-13T10:16:12.467Z,76.9
2017-09-13T10:17:13.872Z,74.4
2017-09-13T10:18:15.365Z,72.3
2017-09-13T10:19:16.790Z,73.4
2017-09-13T10:20:18.199Z,74.1
2017-09-13T10:21:19.687Z,73.7
2017-09-13T10:22:21.119Z,70.7
2017-09-13T10:23:22.498Z,71.2
2017-09-13T10:24:24.010Z,71.7
2017-09-13T10:25:25.417Z,71.1
2017-09-13T10:26:26.895Z,69.8
2017-09-13T10:27:28.300Z,71.1
2017-09-13T10:28:29.699Z,68.7
2017-09-13T10:29:31.210Z,70.7
2017-09-13T10:30:32.615Z,72.6
2017-09-13T10:31:34.021Z,73.1
2017-09-13T10:32:35.529Z,73.9
2017-09-13T10:33:36.934Z,74.6
2017-09-13T10:34:38.340Z,73.8
2017-09-13T10:35:39.852Z,75.3
2017-09-13T10:36:41.254Z,73.3
2017-09-13T10:37:42.730Z,73.7
2017-09-13T10:38:44.136Z,72.9
2017-09-13T10:39:45.614Z,73.5
2017-09-13T10:40:47.025Z,73.3
2017-09-13T10:41:48.491Z,73.8
2017-09-13T10:42:49.906Z,73.6
2017-09-13T10:43:51.311Z,73.9
2017-09-13T10:44:52.812Z,71.9
2017-09-13T10:45:54.214Z,72.3
2017-09-13T10:46:55.621Z,74.3
2017-09-13T10:47:57.132Z,75.7
2017-09-13T10:48:58.534Z,76.9
2017-09-13T10:49:59.937Z,77.7
2017-09-13T10:51:01.457Z,79.9
2017-09-13T10:52:02.859Z,78.4
2017-09-13T10:53:04.334Z,81.2
2017-09-13T10:54:05.737Z,84.9
2017-09-13T10:55:07.145Z,83.5
2017-09-13T10:56:08.654Z,86.1
2017-09-13T10:57:10.055Z,83.3
2017-09-13T10:58:11.467Z,84.9
2017-09-13T10:59:12.975Z,85.3
2017-09-13T11:00:14.377Z,84.4
2017-09-13T11:01:15.857Z,85.3
2017-09-13T11:02:17.260Z,86.3
2017-09-13T11:03:18.739Z,86.5
2017-09-13T11:04:20.149Z,84.5
2017-09-13T11:05:21.619Z,84.9
2017-09-13T11:06:23.023Z,83.7
2017-09-13T11:07:24.505Z,84.5
2017-09-13T11:08:25.954Z,83.9
2017-09-13T11:09:27.412Z,85.2
2017-09-13T11:10:28.812Z,85.2
2017-09-13T11:11:30.259Z,84.5
2017-09-13T11:12:31.670Z,84.4
2017-09-13T11:13:33.140Z,84.7
2017-09-13T11:14:34.543Z,84.3
2017-09-13T11:15:36.024Z,83.2
2017-09-13T11:16:37.425Z,83.5
2017-09-13T11:17:38.900Z,84.3
2017-09-13T11:18:40.298Z,84.9
2017-09-13T11:19:41.783Z,83.8
2017-09-13T11:20:43.199Z,83.9
2017-09-13T11:21:44.664Z,83.0
2017-09-13T11:22:46.078Z,83.1
2017-09-13T11:23:47.554Z,83.7
2017-09-13T11:24:48.955Z,85.0
2017-09-13T11:25:50.422Z,85.6
2017-09-13T11:26:51.824Z,84.9
2017-09-13T11:27:53.306Z,83.0
2017-09-13T11:28:54.767Z,83.3
2017-09-13T11:29:56.184Z,83.9
2017-09-13T11:30:57.588Z,86.0
2017-09-13T11:31:59.068Z,85.1
2017-09-13T11:33:00.470Z,84.6
2017-09-13T11:34:01.952Z,84.8
2017-09-13T11:35:03.350Z,85.5
2017-09-13T11:36:04.753Z,84.9
2017-09-13T11:37:06.267Z,84.9
2017-09-13T11:38:07.670Z,85.3
2017-09-13T11:39:09.073Z,85.4
2017-09-13T11:40:10.485Z,85.7
2017-09-13T11:41:11.885Z,84.3
2017-09-13T11:42:13.368Z,84.5
2017-09-13T11:43:14.788Z,85.1
2017-09-13T11:44:16.246Z,84.3
2017-09-13T11:45:17.658Z,84.3
2017-09-13T11:46:19.130Z,84.1
2017-09-13T11:47:20.534Z,84.4
2017-09-13T11:48:22.008Z,82.8
2017-09-13T11:49:23.416Z,80.6
2017-09-13T11:50:24.999Z,81.1
2017-09-13T11:51:26.423Z,80.5
2017-09-13T11:52:27.872Z,81.9
2017-09-13T11:53:29.278Z,82.2
2017-09-13T11:54:30.759Z,82.8
2017-09-13T11:55:32.157Z,81.0
2017-09-13T11:56:33.559Z,80.3
2017-09-13T11:57:34.972Z,79.4
2017-09-13T11:58:36.383Z,78.6
2017-09-13T11:59:37.790Z,77.1
2017-09-13T12:00:39.305Z,76.9
2017-09-13T12:01:40.705Z,75.2
2017-09-13T12:02:42.176Z,73.4
2017-09-13T12:03:43.581Z,71.7
2017-09-13T12:04:45.058Z,69.7
2017-09-13T12:05:46.481Z,67.6
2017-09-13T12:06:47.884Z,68.2
2017-09-13T12:07:49.378Z,68.5
2017-09-13T12:08:50.796Z,68.5
2017-09-13T12:09:52.197Z,71.9
2017-09-13T12:10:53.700Z,73.9
2017-09-13T12:11:55.103Z,69.9
2017-09-13T12:12:56.583Z,69.4
2017-09-13T12:13:57.984Z,67.8
2017-09-13T12:14:59.483Z,68.2
2017-09-13T12:16:00.886Z,67.0
2017-09-13T12:17:02.343Z,64.7
2017-09-13T12:18:03.746Z,63.8
2017-09-13T12:19:05.221Z,63.9
2017-09-13T12:20:06.647Z,60.2
2017-09-13T12:21:08.050Z,59.0
2017-09-13T12:22:09.543Z,61.9
2017-09-13T12:23:10.947Z,57.6
2017-09-13T12:24:12.352Z,59.9
2017-09-13T12:25:13.864Z,63.3
2017-09-13T12:26:15.277Z,61.2
2017-09-13T12:27:16.742Z,61.7
2017-09-13T12:28:18.153Z,62.2
2017-09-13T12:29:19.624Z,66.6
2017-09-13T12:30:21.030Z,64.3
2017-09-13T12:31:22.431Z,65.4
2017-09-13T12:32:23.945Z,65.6
2017-09-13T12:33:25.348Z,68.2
2017-09-13T12:34:26.754Z,68.0
2017-09-13T12:35:28.267Z,69.6
2017-09-13T12:36:29.686Z,70.4
2017-09-13T12:37:31.102Z,66.7
2017-09-13T12:38:32.589Z,68.4
2017-09-13T12:39:33.992Z,69.5
2017-09-13T12:40:35.419Z,70.1
2017-09-13T12:41:36.915Z,72.0
2017-09-13T12:42:38.316Z,71.6
2017-09-13T12:43:39.719Z,71.6
2017-09-13T12:44:41.228Z,71.1
2017-09-13T12:45:42.633Z,71.9
2017-09-13T12:46:44.034Z,70.8
2017-09-13T12:47:45.548Z,71.4
2017-09-13T12:48:46.974Z,69.1
2017-09-13T12:49:48.429Z,72.5
2017-09-13T12:50:49.837Z,74.7
2017-09-13T12:51:51.237Z,73.1
2017-09-13T12:52:52.761Z,71.6
2017-09-13T12:53:54.161Z,70.9
2017-09-13T12:54:55.564Z,71.7
2017-09-13T12:55:57.074Z,69.4
2017-09-13T12:56:58.477Z,70.4
2017-09-13T12:57:59.953Z,71.1
2017-09-13T12:59:01.356Z,71.3
2017-09-13T13:00:02.836Z,72.6
2017-09-13T13:01:04.239Z,70.8
2017-09-13T13:02:05.645Z,71.9
2017-09-13T13:03:07.152Z,71.3
2017-09-13T13:04:08.557Z,72.7
2017-09-13T13:05:09.959Z,74.8
2017-09-13T13:06:11.375Z,73.1
2017-09-13T13:07:12.784Z,72.3
2017-09-13T13:08:14.188Z,72.3
2017-09-13T13:09:15.685Z,72.2
2017-09-13T13:10:17.103Z,72.5
2017-09-13T13:11:18.507Z,72.2
2017-09-13T13:12:20.024Z,71.5
2017-09-13T13:13:21.423Z,71.4
2017-09-13T13:14:22.826Z,71.9
2017-09-13T13:15:24.364Z,73.2
2017-09-13T13:16:25.744Z,72.7
2017-09-13T13:17:27.148Z,73.4
2017-09-13T13:18:28.545Z,72.1
2017-09-13T13:19:29.949Z,72.4
2017-09-13T13:20:31.433Z,73.1
2017-09-13T13:21:32.837Z,72.6
2017-09-13T13:22:34.321Z,72.7
2017-09-13T13:23:35.721Z,72.5
2017-09-13T13:24:37.197Z,73.7